createdAt,value
2022-08-03T00:00:34.414Z,17.54
2022-08-03T00:03:04.964Z,17.50
2022-08-03T00:05:33.737Z,17.46
2022-08-03T00:08:01.918Z,17.40
2022-08-03T00:10:30.387Z,17.37
2022-08-03T00:12:58.518Z,17.33
2022-08-03T00:15:26.562Z,17.29
2022-08-03T00:17:54.586Z,17.27
2022-08-03T00:20:23.041Z,17.25
2022-08-03T00:22:51.577Z,17.22
2022-08-03T00:25:19.973Z,17.18
2022-08-03T00:27:48.498Z,17.14
2022-08-03T00:30:18.998Z,17.11
2022-08-03T00:32:47.987Z,17.07
2022-08-03T00:35:36.506Z,17.06
2022-08-03T00:38:05.015Z,17.02
2022-08-03T00:40:33.142Z,17.00
2022-08-03T00:43:03.933Z,16.98
2022-08-03T00:45:36.934Z,16.94
2022-08-03T00:48:06.808Z,16.89
2022-08-03T00:50:55.260Z,16.89
2022-08-03T00:53:23.264Z,16.87
2022-08-03T00:55:51.663Z,16.85
2022-08-03T00:58:20.020Z,16.83
2022-08-03T01:00:48.556Z,16.80
2022-08-03T01:03:16.679Z,16.78
2022-08-03T01:05:53.402Z,16.73
2022-08-03T01:08:46.477Z,16.71
2022-08-03T01:11:59.844Z,16.69
2022-08-03T01:14:32.198Z,16.68
2022-08-03T01:17:16.679Z,16.65
2022-08-03T01:20:00.810Z,16.61
2022-08-03T01:22:40.427Z,16.57
2022-08-03T01:25:20.121Z,16.53
2022-08-03T01:28:12.363Z,16.51
2022-08-03T01:30:43.852Z,16.48
2022-08-03T01:33:24.243Z,16.45
2022-08-03T01:36:01.010Z,16.41
2022-08-03T01:38:39.970Z,16.36
2022-08-03T01:41:13.573Z,16.35
2022-08-03T01:44:26.703Z,16.32
2022-08-03T01:46:35.151Z,16.30
2022-08-03T01:49:09.330Z,16.29
2022-08-03T01:51:58.014Z,16.26
2022-08-03T01:54:31.270Z,16.23
2022-08-03T01:57:00.066Z,16.22
2022-08-03T01:59:30.726Z,16.24
2022-08-03T02:02:31.886Z,16.22
2022-08-03T02:04:50.622Z,16.22
2022-08-03T02:07:20.135Z,16.22
2022-08-03T02:09:52.737Z,16.21
2022-08-03T02:12:24.138Z,16.24
2022-08-03T02:14:53.995Z,16.25
2022-08-03T02:17:38.629Z,16.26
2022-08-03T02:20:11.341Z,16.25
2022-08-03T02:22:43.817Z,16.24
2022-08-03T02:25:14.052Z,16.22
2022-08-03T02:28:06.562Z,16.19
2022-08-03T02:30:39.229Z,16.13
2022-08-03T02:33:25.155Z,16.13
2022-08-03T02:35:54.463Z,16.13
2022-08-03T02:38:28.512Z,16.09
2022-08-03T02:40:58.857Z,16.07
2022-08-03T02:43:30.095Z,16.05
2022-08-03T02:46:20.689Z,16.01
2022-08-03T02:48:54.691Z,16.01
2022-08-03T02:51:25.068Z,15.95
2022-08-03T02:53:56.507Z,15.90
2022-08-03T02:56:27.641Z,15.84
2022-08-03T02:58:59.537Z,15.81
2022-08-03T03:01:30.667Z,15.77
2022-08-03T03:04:00.302Z,15.76
2022-08-03T03:06:30.980Z,15.75
2022-08-03T03:09:00.548Z,15.75
2022-08-03T03:11:29.491Z,15.74
2022-08-03T03:13:58.605Z,15.70
2022-08-03T03:16:27.925Z,15.69
2022-08-03T03:18:57.500Z,15.70
2022-08-03T03:21:27.148Z,15.69
2022-08-03T03:23:55.806Z,15.70
2022-08-03T03:26:23.990Z,15.72
2022-08-03T03:28:52.697Z,15.73
2022-08-03T03:31:20.713Z,15.73
2022-08-03T03:33:49.337Z,15.73
2022-08-03T03:36:18.582Z,15.75
2022-08-03T03:38:46.704Z,15.80
2022-08-03T03:41:15.035Z,15.85
2022-08-03T03:43:43.695Z,15.88
2022-08-03T03:46:15.070Z,15.91
2022-08-03T03:48:43.277Z,15.94
2022-08-03T03:51:11.876Z,15.97
2022-08-03T03:53:40.015Z,16.00
2022-08-03T03:56:08.119Z,16.05
2022-08-03T03:58:36.395Z,16.08
2022-08-03T04:01:04.527Z,16.11
2022-08-03T04:03:32.709Z,16.14
2022-08-03T04:06:19.528Z,16.15
2022-08-03T04:09:05.878Z,16.18
2022-08-03T04:11:40.754Z,16.19
2022-08-03T04:14:13.332Z,16.22
2022-08-03T04:16:45.475Z,16.23
2022-08-03T04:19:24.935Z,16.27
2022-08-03T04:21:58.051Z,16.33
2022-08-03T04:24:33.396Z,16.42
2022-08-03T04:27:04.962Z,16.51
2022-08-03T04:29:35.155Z,16.57
2022-08-03T04:32:08.034Z,16.59
2022-08-03T04:34:36.143Z,16.67
2022-08-03T04:37:13.720Z,16.76
2022-08-03T04:39:44.618Z,16.84
2022-08-03T04:42:15.236Z,16.93
2022-08-03T04:44:45.896Z,17.02
2022-08-03T04:47:14.318Z,17.09
2022-08-03T04:49:43.907Z,17.19
2022-08-03T04:52:12.199Z,17.28
2022-08-03T04:54:50.968Z,17.33
2022-08-03T04:57:22.698Z,17.40
2022-08-03T05:00:01.483Z,17.47
2022-08-03T05:02:32.224Z,17.54
2022-08-03T05:05:00.742Z,17.55
2022-08-03T05:07:35.613Z,17.54
2022-08-03T05:10:28.873Z,17.53
2022-08-03T05:12:56.881Z,17.51
2022-08-03T05:15:25.110Z,17.56
2022-08-03T05:17:53.107Z,17.63
2022-08-03T05:20:21.425Z,17.74
2022-08-03T05:22:49.695Z,17.81
2022-08-03T05:25:20.602Z,17.89
2022-08-03T05:27:51.358Z,17.94
2022-08-03T05:30:29.857Z,17.94
2022-08-03T05:33:05.247Z,17.98
2022-08-03T05:36:01.805Z,18.03
2022-08-03T05:38:28.547Z,18.10
2022-08-03T05:41:22.683Z,18.14
2022-08-03T05:43:46.923Z,18.20
2022-08-03T05:46:15.290Z,18.29
2022-08-03T05:48:44.257Z,18.38
2022-08-03T05:51:13.985Z,18.49
2022-08-03T05:53:43.986Z,18.62
2022-08-03T05:56:15.053Z,18.70
2022-08-03T05:58:47.515Z,18.81
2022-08-03T06:01:17.606Z,18.92
2022-08-03T06:03:46.474Z,19.03
2022-08-03T06:06:15.267Z,19.19
2022-08-03T06:08:45.847Z,19.34
2022-08-03T06:11:14.321Z,19.47
2022-08-03T06:13:43.414Z,19.60
2022-08-03T06:16:12.203Z,19.72
2022-08-03T06:18:41.136Z,19.82
2022-08-03T06:21:14.907Z,19.95
2022-08-03T06:23:53.499Z,20.06
2022-08-03T06:26:27.951Z,20.20
2022-08-03T06:28:56.667Z,20.34
2022-08-03T06:31:33.090Z,20.48
2022-08-03T06:34:32.770Z,20.64
2022-08-03T06:36:58.567Z,20.81
2022-08-03T06:39:30.163Z,20.96
2022-08-03T06:41:58.998Z,21.11
2022-08-03T06:44:27.181Z,21.25
2022-08-03T06:46:56.632Z,21.39
2022-08-03T06:49:25.220Z,21.50
2022-08-03T06:52:05.740Z,21.60
2022-08-03T06:54:38.477Z,21.72
2022-08-03T06:57:08.561Z,21.88
2022-08-03T07:00:08.292Z,22.05
2022-08-03T07:02:29.320Z,22.23
2022-08-03T07:05:02.013Z,22.37
2022-08-03T07:07:34.100Z,22.52
2022-08-03T07:10:04.731Z,22.62
2022-08-03T07:12:36.696Z,22.75
2022-08-03T07:15:06.033Z,22.82
2022-08-03T07:17:37.096Z,22.96
2022-08-03T07:20:07.575Z,23.08
2022-08-03T07:22:35.803Z,23.20
2022-08-03T07:25:06.764Z,23.34
2022-08-03T07:27:35.276Z,23.39
2022-08-03T07:30:07.039Z,23.49
2022-08-03T07:32:36.156Z,23.63
2022-08-03T07:35:25.069Z,23.70
2022-08-03T07:37:55.243Z,23.72
2022-08-03T07:40:31.497Z,23.81
2022-08-03T07:43:00.920Z,23.88
2022-08-03T07:45:30.382Z,24.01
2022-08-03T07:47:58.478Z,24.01
2022-08-03T07:50:27.499Z,24.17
2022-08-03T07:52:58.030Z,24.34
2022-08-03T07:55:28.116Z,24.48
2022-08-03T07:58:09.412Z,24.53
2022-08-03T08:00:38.859Z,24.66
2022-08-03T08:03:07.135Z,24.77
2022-08-03T08:05:40.389Z,24.88
2022-08-03T08:08:09.033Z,24.95
2022-08-03T08:10:37.931Z,25.02
2022-08-03T08:13:06.500Z,25.00
2022-08-03T08:15:34.618Z,25.16
2022-08-03T08:18:03.956Z,25.31
2022-08-03T08:20:34.986Z,25.45
2022-08-03T08:23:24.229Z,25.48
2022-08-03T08:25:57.144Z,25.47
2022-08-03T08:28:32.464Z,25.57
2022-08-03T08:31:03.663Z,25.62
2022-08-03T08:34:01.002Z,25.71
2022-08-03T08:36:21.612Z,25.69
2022-08-03T08:38:49.942Z,25.59
2022-08-03T08:41:18.273Z,25.72
2022-08-03T08:43:48.408Z,25.88
2022-08-03T08:46:19.180Z,25.84
2022-08-03T08:48:54.551Z,25.97
2022-08-03T08:51:54.601Z,26.14
2022-08-03T08:54:22.866Z,26.24
2022-08-03T08:56:53.101Z,26.43
2022-08-03T08:59:22.412Z,26.60
2022-08-03T09:01:58.684Z,26.75
2022-08-03T09:04:29.672Z,26.94
2022-08-03T09:07:18.691Z,26.94
2022-08-03T09:10:09.995Z,27.12
2022-08-03T09:12:47.925Z,27.23
2022-08-03T09:15:31.845Z,27.34
2022-08-03T09:18:03.104Z,27.37
2022-08-03T09:20:34.650Z,27.48
2022-08-03T09:23:59.806Z,27.60
2022-08-03T09:26:01.734Z,27.59
2022-08-03T09:29:00.407Z,27.70
2022-08-03T09:31:43.479Z,27.87
2022-08-03T09:34:16.823Z,28.00
2022-08-03T09:36:47.351Z,27.89
2022-08-03T09:39:40.279Z,27.91
2022-08-03T09:42:18.560Z,27.80
2022-08-03T09:44:48.846Z,27.87
2022-08-03T09:47:30.677Z,27.93
2022-08-03T09:50:07.423Z,28.21
2022-08-03T09:52:50.093Z,28.18
2022-08-03T09:56:05.147Z,28.08
2022-08-03T09:58:10.695Z,28.28
2022-08-03T10:00:58.995Z,28.66
2022-08-03T10:03:31.017Z,28.85
2022-08-03T10:06:00.219Z,29.03
2022-08-03T10:08:28.505Z,29.13
2022-08-03T10:10:58.809Z,28.84
2022-08-03T10:13:27.472Z,29.12
2022-08-03T10:16:24.943Z,29.29
2022-08-03T10:18:49.590Z,29.81
2022-08-03T10:21:20.387Z,29.70
2022-08-03T10:23:50.893Z,29.77
2022-08-03T10:26:26.395Z,29.89
2022-08-03T10:28:57.129Z,29.99
2022-08-03T10:31:34.981Z,30.10
2022-08-03T10:34:10.880Z,30.08
2022-08-03T10:36:41.521Z,30.25
2022-08-03T10:39:16.353Z,30.25
2022-08-03T10:41:46.469Z,30.11
2022-08-03T10:44:23.560Z,30.23
2022-08-03T10:46:52.860Z,30.41
2022-08-03T10:49:34.288Z,30.92
2022-08-03T10:52:13.714Z,31.51
2022-08-03T10:55:14.240Z,31.49
2022-08-03T10:57:58.350Z,31.77
2022-08-03T11:00:30.556Z,31.97
2022-08-03T11:03:09.082Z,32.37
2022-08-03T11:05:44.471Z,32.29
2022-08-03T11:08:36.897Z,32.41
2022-08-03T11:11:20.325Z,32.54
2022-08-03T11:14:05.048Z,33.02
2022-08-03T11:16:47.206Z,32.88
2022-08-03T11:19:34.205Z,33.02
2022-08-03T11:22:25.795Z,33.31
2022-08-03T11:24:56.557Z,33.25
2022-08-03T11:27:26.032Z,33.14
2022-08-03T11:30:15.953Z,33.41
2022-08-03T11:32:46.713Z,33.71
2022-08-03T11:35:25.653Z,33.60
2022-08-03T11:38:01.974Z,33.75
2022-08-03T11:40:54.527Z,34.26
2022-08-03T11:43:22.715Z,34.48
2022-08-03T11:45:58.664Z,33.70
2022-08-03T11:48:38.959Z,34.31
2022-08-03T11:51:25.770Z,35.10
2022-08-03T11:53:58.259Z,35.57
2022-08-03T11:56:27.042Z,35.07
2022-08-03T11:59:20.314Z,34.71
2022-08-03T12:01:47.092Z,34.19
2022-08-03T12:04:16.783Z,33.71
2022-08-03T12:07:01.437Z,33.31
2022-08-03T12:09:29.716Z,33.28
2022-08-03T12:12:02.889Z,32.69
2022-08-03T12:14:48.455Z,32.44
2022-08-03T12:17:19.731Z,31.98
2022-08-03T12:19:48.203Z,31.61
2022-08-03T12:22:17.173Z,32.10
2022-08-03T12:24:47.876Z,32.84
2022-08-03T12:27:28.166Z,32.99
2022-08-03T12:29:59.266Z,32.60
2022-08-03T12:32:29.756Z,32.52
2022-08-03T12:35:01.499Z,32.57
2022-08-03T12:37:30.957Z,32.35
2022-08-03T12:40:09.337Z,32.50
2022-08-03T12:42:40.117Z,33.64
2022-08-03T12:45:32.703Z,34.35
2022-08-03T12:48:12.783Z,34.24
2022-08-03T12:50:41.696Z,33.98
2022-08-03T12:53:12.418Z,34.36
2022-08-03T12:56:05.005Z,34.30
2022-08-03T12:58:36.165Z,33.57
2022-08-03T13:01:10.443Z,32.94
2022-08-03T13:03:43.224Z,33.32
2022-08-03T13:06:25.343Z,34.03
2022-08-03T13:09:05.083Z,33.61
2022-08-03T13:11:58.186Z,33.03
2022-08-03T13:14:23.788Z,32.37
2022-08-03T13:16:52.553Z,31.88
2022-08-03T13:19:22.295Z,32.30
2022-08-03T13:22:01.715Z,33.30
2022-08-03T13:24:33.423Z,34.03
2022-08-03T13:28:01.936Z,33.27
2022-08-03T13:29:54.812Z,32.86
2022-08-03T13:32:26.546Z,33.05
2022-08-03T13:34:57.313Z,33.29
2022-08-03T13:37:26.468Z,33.54
2022-08-03T13:39:58.646Z,34.09
2022-08-03T13:42:31.086Z,35.07
2022-08-03T13:45:01.579Z,35.28
2022-08-03T13:47:31.117Z,35.71
2022-08-03T13:50:08.953Z,35.59
2022-08-03T13:52:39.555Z,35.88
2022-08-03T13:55:08.622Z,36.25
2022-08-03T13:58:02.775Z,36.33
2022-08-03T14:00:29.738Z,36.23
2022-08-03T14:03:17.365Z,36.27
2022-08-03T14:05:45.693Z,36.03
2022-08-03T14:08:14.173Z,35.20
2022-08-03T14:10:45.273Z,34.47
2022-08-03T14:13:17.634Z,33.18
2022-08-03T14:15:50.972Z,33.03
2022-08-03T14:18:28.652Z,33.14
2022-08-03T14:21:07.563Z,32.56
2022-08-03T14:23:38.096Z,32.62
2022-08-03T14:26:10.004Z,33.27
2022-08-03T14:28:39.510Z,33.94
2022-08-03T14:31:08.432Z,34.61
2022-08-03T14:33:58.889Z,35.45
2022-08-03T14:36:27.012Z,35.96
2022-08-03T14:38:59.412Z,36.17
2022-08-03T14:41:29.308Z,36.82
2022-08-03T14:44:02.000Z,37.32
2022-08-03T14:46:31.803Z,37.64
2022-08-03T14:50:29.671Z,37.27
2022-08-03T14:52:02.539Z,37.25
2022-08-03T14:54:31.677Z,37.68
2022-08-03T14:57:01.309Z,37.57
2022-08-03T14:59:55.734Z,37.34
2022-08-03T15:02:23.645Z,37.44
2022-08-03T15:04:52.926Z,37.18
2022-08-03T15:07:21.437Z,37.51
2022-08-03T15:09:50.335Z,37.61
2022-08-03T15:12:19.081Z,37.78
2022-08-03T15:15:16.670Z,37.85
2022-08-03T15:18:00.179Z,38.58
2022-08-03T15:20:46.645Z,39.06
2022-08-03T15:23:20.424Z,38.08
2022-08-03T15:26:29.552Z,38.26
2022-08-03T15:28:38.776Z,38.57
2022-08-03T15:31:07.144Z,38.53
2022-08-03T15:33:36.085Z,38.40
2022-08-03T15:36:04.941Z,38.32
2022-08-03T15:38:33.370Z,37.80
2022-08-03T15:41:01.562Z,37.72
2022-08-03T15:43:29.807Z,37.27
2022-08-03T15:46:28.137Z,36.40
2022-08-03T15:48:49.186Z,37.00
2022-08-03T15:51:17.552Z,36.76
2022-08-03T15:53:46.041Z,36.45
2022-08-03T15:56:18.257Z,36.72
2022-08-03T15:59:10.360Z,37.04
2022-08-03T16:01:35.549Z,36.78
2022-08-03T16:04:04.491Z,36.79
2022-08-03T16:06:37.636Z,36.92
2022-08-03T16:09:24.278Z,36.75
2022-08-03T16:11:55.618Z,36.50
2022-08-03T16:14:32.038Z,36.06
2022-08-03T16:17:07.672Z,36.35
2022-08-03T16:19:35.881Z,36.34
2022-08-03T16:22:04.264Z,36.11
2022-08-03T16:24:33.306Z,36.41
2022-08-03T16:27:02.904Z,36.17
2022-08-03T16:29:31.066Z,35.91
2022-08-03T16:32:09.347Z,35.69
2022-08-03T16:34:39.424Z,35.97
2022-08-03T16:37:36.659Z,35.74
2022-08-03T16:40:03.607Z,34.95
2022-08-03T16:42:31.748Z,35.42
2022-08-03T16:44:59.854Z,35.59
2022-08-03T16:47:28.045Z,35.71
2022-08-03T16:49:56.833Z,35.91
2022-08-03T16:52:27.881Z,35.74
2022-08-03T16:54:56.142Z,35.49
2022-08-03T16:57:56.688Z,34.99
2022-08-03T17:00:33.764Z,35.25
2022-08-03T17:03:18.610Z,34.23
2022-08-03T17:05:49.490Z,33.38
2022-08-03T17:08:26.663Z,33.08
2022-08-03T17:10:56.640Z,32.94
2022-08-03T17:13:27.715Z,32.67
2022-08-03T17:16:12.199Z,32.78
2022-08-03T17:18:53.732Z,32.36
2022-08-03T17:21:32.433Z,31.92
2022-08-03T17:24:04.903Z,31.42
2022-08-03T17:26:44.642Z,30.54
2022-08-03T17:29:17.057Z,30.25
2022-08-03T17:31:48.475Z,29.84
2022-08-03T17:34:19.880Z,29.26
2022-08-03T17:37:06.512Z,28.86
2022-08-03T17:39:59.900Z,28.27
2022-08-03T17:42:38.948Z,28.01
2022-08-03T17:45:08.380Z,27.85
2022-08-03T17:47:44.356Z,27.64
2022-08-03T17:50:24.561Z,27.45
2022-08-03T17:53:07.084Z,27.30
2022-08-03T17:55:58.365Z,27.11
2022-08-03T17:58:55.617Z,26.89
2022-08-03T18:02:10.528Z,26.67
2022-08-03T18:04:57.379Z,26.48
2022-08-03T18:07:41.486Z,26.28
2022-08-03T18:10:15.635Z,26.16
2022-08-03T18:13:10.268Z,26.02
2022-08-03T18:15:59.899Z,25.84
2022-08-03T18:18:34.877Z,25.64
2022-08-03T18:21:17.091Z,25.45
2022-08-03T18:23:50.320Z,25.24
2022-08-03T18:26:21.669Z,25.09
2022-08-03T18:28:54.911Z,24.94
2022-08-03T18:31:59.456Z,24.80
2022-08-03T18:34:32.505Z,24.68
2022-08-03T18:37:07.874Z,24.55
2022-08-03T18:39:49.240Z,24.44
2022-08-03T18:42:19.248Z,24.33
2022-08-03T18:44:54.410Z,24.24
2022-08-03T18:47:53.145Z,24.13
2022-08-03T18:50:48.209Z,23.99
2022-08-03T18:53:23.942Z,23.89
2022-08-03T18:56:18.835Z,23.80
2022-08-03T18:59:15.813Z,23.71
2022-08-03T19:01:57.525Z,23.60
2022-08-03T19:04:42.400Z,23.48
2022-08-03T19:07:18.058Z,23.37
2022-08-03T19:09:55.873Z,23.26
2022-08-03T19:12:39.563Z,23.12
2022-08-03T19:15:13.231Z,22.99
2022-08-03T19:17:53.016Z,22.85
2022-08-03T19:20:27.224Z,22.73
2022-08-03T19:22:58.261Z,22.62
2022-08-03T19:25:34.694Z,22.53
2022-08-03T19:28:06.287Z,22.42
2022-08-03T19:30:39.036Z,22.33
2022-08-03T19:33:11.969Z,22.26
2022-08-03T19:35:55.497Z,22.19
2022-08-03T19:38:28.399Z,22.11
2022-08-03T19:41:01.026Z,22.02
2022-08-03T19:43:53.118Z,21.95
2022-08-03T19:46:30.379Z,21.86
2022-08-03T19:49:16.099Z,21.77
2022-08-03T19:52:01.515Z,21.65
2022-08-03T19:54:52.889Z,21.57
2022-08-03T19:57:25.455Z,21.48
2022-08-03T19:59:57.496Z,21.40
2022-08-03T20:02:29.637Z,21.31
2022-08-03T20:04:59.958Z,21.22
2022-08-03T20:07:33.479Z,21.13
2022-08-03T20:10:05.390Z,21.05
2022-08-03T20:12:39.033Z,20.95
2022-08-03T20:15:09.365Z,20.87
2022-08-03T20:17:57.006Z,20.80
2022-08-03T20:20:37.771Z,20.72
2022-08-03T20:23:16.214Z,20.63
2022-08-03T20:25:58.367Z,20.56
2022-08-03T20:28:50.167Z,20.49
2022-08-03T20:31:23.944Z,20.41
2022-08-03T20:34:00.889Z,20.34
2022-08-03T20:36:30.373Z,20.30
2022-08-03T20:38:59.686Z,20.24
2022-08-03T20:41:28.208Z,20.18
2022-08-03T20:44:01.040Z,20.13
2022-08-03T20:46:40.630Z,20.08
2022-08-03T20:49:18.758Z,20.01
2022-08-03T20:51:52.650Z,19.94
2022-08-03T20:54:31.142Z,19.87
2022-08-03T20:57:04.225Z,19.82
2022-08-03T20:59:50.167Z,19.74
2022-08-03T21:02:29.882Z,19.66
2022-08-03T21:05:08.199Z,19.60
2022-08-03T21:08:03.991Z,19.54
2022-08-03T21:10:37.911Z,19.47
2022-08-03T21:16:02.401Z,19.34
2022-08-03T21:18:44.645Z,19.27
2022-08-03T21:21:16.045Z,19.24
2022-08-03T21:23:48.387Z,19.22
2022-08-03T21:26:24.150Z,19.18
2022-08-03T21:28:55.781Z,19.15
2022-08-03T21:31:26.612Z,19.12
2022-08-03T21:34:02.455Z,19.10
2022-08-03T21:36:36.368Z,19.08
2022-08-03T21:39:08.339Z,19.06
2022-08-03T21:41:39.121Z,19.04
2022-08-03T21:44:08.028Z,19.01
2022-08-03T21:46:40.056Z,18.99
2022-08-03T21:50:05.027Z,18.95
2022-08-03T21:52:04.695Z,18.89
2022-08-03T21:54:40.024Z,18.85
2022-08-03T21:57:24.366Z,18.81
2022-08-03T22:00:02.180Z,18.78
2022-08-03T22:02:32.034Z,18.73
2022-08-03T22:05:05.054Z,18.70
2022-08-03T22:07:35.672Z,18.67
2022-08-03T22:10:06.698Z,18.62
2022-08-03T22:12:35.296Z,18.58
2022-08-03T22:15:06.501Z,18.54
2022-08-03T22:17:54.185Z,18.48
2022-08-03T22:20:25.562Z,18.42
2022-08-03T22:22:57.187Z,18.36
2022-08-03T22:25:32.120Z,18.31
2022-08-03T22:28:06.148Z,18.26
2022-08-03T22:30:35.171Z,18.20
2022-08-03T22:33:11.086Z,18.15
2022-08-03T22:35:44.144Z,18.12
2022-08-03T22:38:17.847Z,18.06
2022-08-03T22:40:51.226Z,18.02
2022-08-03T22:43:25.066Z,17.96
2022-08-03T22:46:08.862Z,17.92
2022-08-03T22:48:41.187Z,17.87
2022-08-03T22:51:10.816Z,17.83
2022-08-03T22:53:39.826Z,17.79
2022-08-03T22:56:09.119Z,17.74
2022-08-03T22:58:37.232Z,17.69
2022-08-03T23:01:11.528Z,17.62
2022-08-03T23:03:59.091Z,17.55
2022-08-03T23:06:35.982Z,17.50
2022-08-03T23:09:11.877Z,17.46
2022-08-03T23:11:45.523Z,17.41
2022-08-03T23:14:18.727Z,17.37
2022-08-03T23:16:48.034Z,17.32
2022-08-03T23:19:25.824Z,17.28
2022-08-03T23:22:02.702Z,17.24
2022-08-03T23:24:36.422Z,17.19
2022-08-03T23:27:06.502Z,17.16
2022-08-03T23:29:37.051Z,17.11
2022-08-03T23:32:06.341Z,17.07
2022-08-03T23:34:56.652Z,17.03
2022-08-03T23:37:26.017Z,16.99
2022-08-03T23:39:57.038Z,16.97
2022-08-03T23:42:26.276Z,16.96
2022-08-03T23:44:59.525Z,16.93
2022-08-03T23:47:46.413Z,16.91
2022-08-03T23:50:16.334Z,16.87
2022-08-03T23:53:01.890Z,16.83
2022-08-03T23:55:48.408Z,16.78
2022-08-03T23:58:35.019Z,16.69
